Ride Results

Kentish Endurance Riders (15-03-2014)
Ride distance: 80.0 km

Outcomes - Kentish Endurance Riders (15-03-2014)
Division No. of Entries Retired / DNE Completed Withdrawn Ineligible V/O Percentage Completed
HW 4 - 1 1 - 2 25.00%
MW 19 - 15 - - 4 78.95%
LW 9 - 8 - - 1 88.89%
JN 9 - 4 1 - 4 44.44%
Totals 41 - 28 2 - 11 68.29%
Results - Kentish Endurance Riders (15-03-2014)
No. Rider Horse Place Time Leg Speeds Total
Km/Hr
H/R bpm
Heavyweight
G Greg Henry Bellawongarah Beau 1 (BC) 6:56:00 13.7, 9.9 11.54 38, 49, 59 (Avg:54)
252 Stephen Proctor Bryndou Ayce Lame L1 0:00:00 95.9 - 38, 51 (Avg:51)
137 John Shoobridge Tex Lame L1 0:00:00 16.1 - 37, 49 (Avg:49)
145 Dakota Wolf Awarran Park Princely Aura Withdrawn L1 0:00:00 - - 36, 49 (Avg:49)
Middleweight
136 Kaye Mitchell Jeshar Park Shahriann 1 (BC) 5:10:33 16.2, 14.7 15.46 34, 46, 48 (Avg:47)
180 Nicole Ford Highland View Piper 2 5:16:13 15.9, 14.4 15.18 38, 45, 52 (Avg:48)
50 Joanne Marshall Rivergum Windchime 3 6:02:00 13.7, 12.7 13.26 35, 43, 47 (Avg:45)
143 Pauline Goodwin Marley Hosanna 4 6:06:00 14.9, 11.7 13.11 35, 46, 42 (Avg:44)
185 Mikaela Jago Undurra Geisha 5 6:07:00 13.2, 12.9 13.08 38, 41, 52 (Avg:46)
57 Tania Jago Undurra Max 5 6:07:00 13.2, 12.9 13.08 38, 42, 46 (Avg:44)
66 Steve Wilson Echo Aladin 7 6:24:00 15.1, 10.6 12.50 36, 47, 45 (Avg:46)
132 Ian Davidson Picnic Park Freeman 8 6:32:00 12.6, 11.8 12.24 52, 47, 51 (Avg:49)
165 Fletch Fletcher Kei Talisman 9 6:45:00 12.9, 10.9 11.85 43, 49, 49 (Avg:49)
30 Karyn Holden Blackwood Springs Rhapsody 10 7:00:00 12.9, 10.2 11.43 33, 40, 46 (Avg:43)
261 Danielle Taylor Karisma Painted Rascal 11 7:03:00 11.9, 10.8 11.35 49, 44, 48 (Avg:46)
8 Lynette Walker Liandra 11 7:03:00 11.9, 10.8 11.35 33, 45, 49 (Avg:47)
270 Melissa Duniam Militaar Dixie Chick 13 7:27:00 11.3, 10.2 10.74 38, 48, 59 (Avg:53)
179 Debbie Grull Lauralyn Notorious 14 7:33:00 11.3, 9.9 10.60 30, 41, 47 (Avg:44)
92 Blaine Astell Madeline Park Show Girl 15 7:35:00 10.9, 10.2 10.55 39, 45, 50 (Avg:47)
281 Emily Wall Sharabhan Sashmah Lame L2 0:00:00 13.2, 12.9 - 34, 41, 52 (Avg:46)
146 Ricky Febey Rocky Lame L1 0:00:00 10.7 - 31, 46 (Avg:46)
5 Carolyn Foley-Jones Vandieman Tandaras Legacy Lame L1 0:00:00 12.6 - 33, 48 (Avg:48)
256 Wendy Smith Sir Angus of Seven Oaks Heart Rate L1 0:00:00 15.6 - 45, 62 (Avg:62)
Lightweight
42 Dianne Walsh Razorback Silver Wings 1 (BC) 5:16:14 15.9, 14.4 15.18 33, 45, 50 (Avg:47)
182 Fran Jordan Tierview Saadat 2 5:33:50 15.9, 13.0 14.38 38, 43, 53 (Avg:48)
115 Jenny Keygan Woodsong Kasanova 2 5:33:50 15.6, 13.2 14.38 34, 48, 47 (Avg:47)
100 Trish Smith Beaucheval Akhiran 4 6:06:00 14.9, 11.7 13.11 36, 50, 55 (Avg:52)
175 Carolyn Webster Echo Austin 5 6:24:00 15.1, 10.6 12.50 39, 44, 47 (Avg:45)
253 Kelly Woodhouse Malricia Delledo 6 6:56:00 13.8, 9.8 11.54 34, 44, 44 (Avg:44)
271 Jessie Herman Black Pearl Calliope 7 7:33:00 11.3, 9.9 10.60 35, 51, 53 (Avg:52)
90 Angela Hawks Colorado 8 7:35:00 10.9, 10.2 10.55 37, 52, 48 (Avg:50)
83 Angie Clark Byrnlea Park Vyrtigo Lame L2 0:00:00 14.5, 16.3 - 32, 43, 53 (Avg:48)
Junior
154 Sarah Parker Moment 1 (BC) 5:10:33 16.2, 14.7 15.46 28, 50, 50 (Avg:50)
209 Grace Huxtable Sandine Gidget 2 6:33:00 12.6, 11.7 12.21 35, 43, 44 (Avg:43)
251 Ellsie Mead Ebjarah Phoenix 3 7:00:00 12.9, 10.2 11.43 35, 47, 53 (Avg:50)
249 Corey Foley DJ Ernie 4 7:35:00 10.7, 10.3 10.55 31, 42, 55 (Avg:48)
226 Hayley Marshall Rivergum Renegade Lame L2 0:00:00 13.7, 12.7 - 37, 46, 59 (Avg:52)
156 David Anderson Jnr Highland View Rocket Lame L1 0:00:00 12.6 - 37, 45 (Avg:45)
277 Heather Colbeck Jaimon-Sharhi Baqi Withdrawn L1 0:00:00 - - 33, 48 (Avg:48)
260 Laura Febey Kaywana Mystique Lame L1 0:00:00 36.9 - 35, 42 (Avg:42)
190 Alice Mitchell Beer Street Lizzy B Lame P/R 0:00:00 - - 36